Time;durP1;ratioP1;P1;durP2;ratioP2;P2;SDS_P1;SDS_P2;PMS_P1;PMS_P2;Temp;Humidity;BMP_temperature;BMP_pressure;BME280_temperature;BME280_humidity;BME280_pressure;Samples;Min_cycle;Max_cycle;Signal;HPM_P1;HPM_P2
2021/04/28 00:00:26;;;;;;;41.25;25.70;;;0.80;99.00;;;;;;5052065;28;20474;-77
2021/04/28 00:02:52;;;;;;;33.45;22.52;;;0.80;98.90;;;;;;5052129;28;20032;-77
2021/04/28 00:05:18;;;;;;;41.90;24.65;;;0.80;99.10;;;;;;5053106;28;20102;-77
2021/04/28 00:07:44;;;;;;;32.38;21.05;;;0.80;98.90;;;;;;5052594;28;20064;-77
2021/04/28 00:10:13;;;;;;;31.83;22.20;;;0.80;98.90;;;;;;5056272;28;20501;-77
2021/04/28 00:12:39;;;;;;;30.67;19.90;;;0.70;99.00;;;;;;5055969;28;20067;-77
2021/04/28 00:15:14;;;;;;;37.17;23.38;;;0.70;99.00;;;;;;5057394;28;20418;-78
2021/04/28 00:17:40;;;;;;;34.97;23.15;;;0.70;98.90;;;;;;5057116;28;20090;-78
2021/04/28 00:20:21;;;;;;;26.63;19.80;;;0.70;98.80;;;;;;5056094;28;20526;-78
2021/04/28 00:22:48;;;;;;;31.42;21.27;;;0.70;98.70;;;;;;5039898;28;20036;-78
2021/04/28 00:25:18;;;;;;;38.47;23.20;;;0.70;98.70;;;;;;5057277;28;20021;-78
2021/04/28 00:27:45;;;;;;;29.20;20.23;;;0.70;98.60;;;;;;5055931;28;20024;-78
2021/04/28 00:30:13;;;;;;;29.92;21.00;;;0.70;98.60;;;;;;5039640;28;20501;-78
2021/04/28 00:32:39;;;;;;;31.33;20.98;;;0.70;98.60;;;;;;5056130;28;20037;-78
2021/04/28 00:35:10;;;;;;;41.72;25.40;;;0.70;98.70;;;;;;5039658;28;20032;-78
2021/04/28 00:37:36;;;;;;;36.13;22.75;;;0.70;98.70;;;;;;5057051;28;20116;-78
2021/04/28 00:40:06;;;;;;;30.50;19.40;;;0.60;98.80;;;;;;5056818;28;20112;-77
2021/04/28 00:42:32;;;;;;;29.83;19.40;;;0.70;98.60;;;;;;5056709;28;20467;-77
2021/04/28 00:44:59;;;;;;;29.45;19.35;;;0.60;98.60;;;;;;5056706;28;20044;-77
2021/04/28 00:47:24;;;;;;;33.95;22.65;;;0.60;98.50;;;;;;5055510;28;20471;-77
2021/04/28 00:49:50;;;;;;;33.28;20.98;;;0.60;98.40;;;;;;5056637;28;20064;-77
2021/04/28 00:52:16;;;;;;;28.63;18.42;;;0.60;98.40;;;;;;5056559;28;20025;-77
2021/04/28 00:54:42;;;;;;;27.10;18.35;;;0.60;98.30;;;;;;5072421;28;20055;-78
2021/04/28 00:57:08;;;;;;;31.60;19.63;;;0.50;98.30;;;;;;5055152;28;20108;-78
2021/04/28 00:59:35;;;;;;;36.55;20.98;;;0.60;98.30;;;;;;5038894;28;20048;-78
2021/04/28 01:02:03;;;;;;;34.22;21.20;;;0.50;98.20;;;;;;5056388;28;20031;-78
2021/04/28 01:04:30;;;;;;;36.40;20.95;;;0.60;98.20;;;;;;5056301;28;20025;-78
2021/04/28 01:06:56;;;;;;;42.97;25.15;;;0.50;98.20;;;;;;5056026;28;20387;-78
2021/04/28 01:09:23;;;;;;;39.67;22.13;;;0.50;98.20;;;;;;5038736;28;20032;-78
2021/04/28 01:11:49;;;;;;;32.85;20.73;;;0.50;98.20;;;;;;5055489;28;20060;-78
2021/04/28 01:14:15;;;;;;;37.05;22.58;;;0.50;98.20;;;;;;5056362;28;20021;-78
2021/04/28 01:16:41;;;;;;;38.55;23.80;;;0.50;98.10;;;;;;5055059;28;20025;-78
2021/04/28 01:19:07;;;;;;;41.45;23.40;;;0.50;98.10;;;;;;5054089;28;20441;-78
2021/04/28 01:21:33;;;;;;;50.78;30.23;;;0.40;98.10;;;;;;5055288;28;20111;-79
2021/04/28 01:23:59;;;;;;;60.53;35.63;;;0.40;98.10;;;;;;5054563;28;20025;-79
2021/04/28 01:26:27;;;;;;;56.88;34.00;;;0.40;98.00;;;;;;5054498;28;20375;-79
2021/04/28 01:28:58;;;;;;;63.80;32.78;;;0.30;98.00;;;;;;5054778;28;20021;-79
2021/04/28 01:31:28;;;;;;;52.22;31.85;;;0.40;98.00;;;;;;5054780;28;20083;-79
2021/04/28 01:33:59;;;;;;;50.72;30.35;;;0.40;98.00;;;;;;5054597;28;20033;-79
2021/04/28 01:36:28;;;;;;;43.78;26.77;;;0.30;98.00;;;;;;5056267;28;20099;-79
2021/04/28 01:38:57;;;;;;;40.42;25.63;;;0.30;97.90;;;;;;5054746;28;20029;-79
2021/04/28 01:41:25;;;;;;;43.58;26.92;;;0.30;97.90;;;;;;5054554;28;20076;-79
2021/04/28 01:43:52;;;;;;;47.50;27.63;;;0.30;97.90;;;;;;5055773;28;20071;-80
2021/04/28 01:46:18;;;;;;;50.22;28.92;;;0.30;97.90;;;;;;5054425;28;20021;-80
2021/04/28 01:48:45;;;;;;;50.95;29.10;;;0.30;97.80;;;;;;5053814;28;20025;-80
2021/04/28 01:51:13;;;;;;;42.47;25.58;;;0.30;97.80;;;;;;5054283;28;20173;-80
2021/04/28 01:53:39;;;;;;;50.55;30.33;;;0.30;97.80;;;;;;5054081;28;20021;-81
2021/04/28 01:56:06;;;;;;;55.67;30.52;;;0.20;97.80;;;;;;5055810;28;20029;-80
2021/04/28 01:58:32;;;;;;;53.08;31.70;;;0.20;97.70;;;;;;5055110;28;20025;-80
2021/04/28 02:00:59;;;;;;;57.35;31.27;;;0.20;97.70;;;;;;5055368;28;20029;-80
2021/04/28 02:03:26;;;;;;;51.53;30.52;;;0.20;97.70;;;;;;5055353;28;20052;-81
2021/04/28 02:05:53;;;;;;;55.78;32.95;;;0.20;97.70;;;;;;5054945;28;20025;-81
2021/04/28 02:08:20;;;;;;;58.45;33.28;;;0.20;97.60;;;;;;5053716;28;20021;-81
2021/04/28 02:10:46;;;;;;;61.88;34.90;;;0.20;97.60;;;;;;5053952;28;20031;-81
2021/04/28 02:13:14;;;;;;;60.38;37.08;;;0.10;97.60;;;;;;5055494;28;20091;-81
2021/04/28 02:15:40;;;;;;;66.07;38.50;;;0.10;97.60;;;;;;5055352;28;20063;-82
2021/04/28 02:18:08;;;;;;;65.43;38.03;;;0.10;97.60;;;;;;5053739;28;20025;-81
2021/04/28 02:20:35;;;;;;;66.68;39.33;;;0.10;97.60;;;;;;5053761;28;20416;-82
2021/04/28 02:23:03;;;;;;;62.72;38.22;;;0.00;97.60;;;;;;5053604;28;20055;-83
2021/04/28 02:25:29;;;;;;;70.50;40.97;;;0.10;97.70;;;;;;5053662;28;20029;-83
2021/04/28 02:27:55;;;;;;;74.50;45.17;;;0.00;97.60;;;;;;5036707;28;20036;-83
2021/04/28 02:30:24;;;;;;;62.85;38.28;;;0.00;97.60;;;;;;5053235;28;20025;-83
2021/04/28 02:32:51;;;;;;;61.33;38.03;;;0.00;97.60;;;;;;5052764;28;20029;-83
2021/04/28 02:35:19;;;;;;;65.22;38.50;;;0.00;97.70;;;;;;5054182;28;20025;-83
2021/04/28 02:37:48;;;;;;;56.67;34.58;;;0.00;97.60;;;;;;5053258;28;20032;-83
2021/04/28 02:40:16;;;;;;;77.85;43.97;;;0.00;97.70;;;;;;5054379;28;20033;-83
2021/04/28 02:42:43;;;;;;;56.55;32.40;;;-0.10;97.60;;;;;;5053390;28;20021;-83
2021/04/28 02:45:11;;;;;;;68.97;40.55;;;-0.10;97.60;;;;;;5053293;28;20082;-83
2021/04/28 02:47:39;;;;;;;56.17;32.97;;;-0.10;97.60;;;;;;5054419;28;20025;-84
2021/04/28 02:50:11;;;;;;;59.88;33.83;;;-0.10;97.60;;;;;;5052634;28;20132;-84
2021/04/28 02:52:37;;;;;;;71.75;40.17;;;0.00;97.60;;;;;;5051703;28;20155;-84
2021/04/28 02:55:04;;;;;;;74.75;41.80;;;-0.10;97.60;;;;;;5054392;28;20053;-85
2021/04/28 02:57:31;;;;;;;63.92;38.38;;;-0.10;97.60;;;;;;5053367;28;20111;-85
2021/04/28 02:59:59;;;;;;;55.05;35.13;;;-0.10;97.60;;;;;;5054774;28;20044;-85
2021/04/28 03:02:27;;;;;;;52.00;32.97;;;-0.10;97.60;;;;;;5054054;28;20395;-80
2021/04/28 03:04:53;;;;;;;52.65;33.40;;;-0.10;97.70;;;;;;5053895;28;20032;-81
2021/04/28 03:07:19;;;;;;;53.38;31.95;;;-0.10;97.70;;;;;;5052576;28;20487;-81
2021/04/28 03:09:45;;;;;;;55.25;34.42;;;0.00;97.70;;;;;;5052766;28;20055;-81
2021/04/28 03:12:12;;;;;;;58.42;34.42;;;0.00;97.60;;;;;;5053771;28;20025;-81
2021/04/28 03:14:39;;;;;;;48.50;31.70;;;0.00;97.70;;;;;;5053664;28;20463;-80
2021/04/28 03:17:05;;;;;;;56.17;34.92;;;0.10;97.70;;;;;;5053706;28;20413;-82
2021/04/28 03:19:31;;;;;;;72.63;43.45;;;0.10;97.90;;;;;;5052225;28;20166;-81
2021/04/28 03:21:57;;;;;;;74.13;44.00;;;0.10;97.70;;;;;;5052065;28;20123;-82
2021/04/28 03:24:24;;;;;;;59.70;36.72;;;0.10;97.70;;;;;;5052531;28;20047;-81
2021/04/28 03:27:02;;;;;;;56.85;36.55;;;0.20;97.70;;;;;;5036057;28;20174;-81
2021/04/28 03:29:30;;;;;;;58.22;35.97;;;0.20;97.70;;;;;;5052364;28;20029;-81
2021/04/28 03:31:56;;;;;;;57.33;37.47;;;0.20;97.70;;;;;;5054067;28;20044;-81
2021/04/28 03:34:22;;;;;;;61.95;38.05;;;0.20;97.70;;;;;;5052062;28;20025;-83
2021/04/28 03:36:48;;;;;;;60.33;37.00;;;0.30;97.70;;;;;;5053294;28;20051;-77
2021/04/28 03:39:14;;;;;;;62.10;40.70;;;0.30;97.70;;;;;;5053510;28;20076;-77
2021/04/28 03:41:39;;;;;;;63.35;40.97;;;0.30;97.80;;;;;;5053730;28;20438;-77
2021/04/28 03:44:05;;;;;;;63.97;40.55;;;0.40;97.80;;;;;;5052705;28;20036;-78
2021/04/28 03:46:31;;;;;;;67.50;41.35;;;0.40;97.80;;;;;;5053246;28;20021;-79
2021/04/28 03:48:56;;;;;;;58.90;36.97;;;0.40;97.80;;;;;;5051757;28;20073;-78
2021/04/28 03:51:22;;;;;;;67.95;43.00;;;0.50;97.90;;;;;;5052680;28;20386;-78
2021/04/28 03:53:48;;;;;;;65.97;41.33;;;0.50;97.90;;;;;;5053659;28;20029;-78
2021/04/28 03:56:14;;;;;;;76.47;45.72;;;0.60;97.90;;;;;;5051875;28;20079;-78
2021/04/28 03:58:39;;;;;;;131.68;68.78;;;0.70;98.10;;;;;;5053294;28;20031;-78
2021/04/28 04:01:05;;;;;;;166.13;83.28;;;0.80;98.20;;;;;;5052285;28;20029;-78
2021/04/28 04:03:31;;;;;;;157.23;72.85;;;1.00;98.20;;;;;;5051809;28;20025;-77
2021/04/28 04:05:57;;;;;;;117.00;58.88;;;1.00;98.00;;;;;;5053300;28;20025;-77
2021/04/28 04:08:23;;;;;;;89.45;47.33;;;1.10;97.90;;;;;;5053292;28;20074;-77
2021/04/28 04:10:50;;;;;;;70.47;41.95;;;1.20;97.80;;;;;;5053293;28;20025;-77
2021/04/28 04:13:16;;;;;;;63.65;37.50;;;1.20;97.70;;;;;;5051848;28;20070;-76
2021/04/28 04:15:42;;;;;;;53.38;29.60;;;1.30;97.70;;;;;;5035156;28;20029;-76
2021/04/28 04:18:07;;;;;;;53.97;31.48;;;1.40;97.70;;;;;;5051451;28;20491;-78
2021/04/28 04:20:34;;;;;;;49.55;28.20;;;1.60;97.60;;;;;;5052764;28;20026;-76
2021/04/28 04:23:00;;;;;;;44.20;27.77;;;1.70;97.50;;;;;;5051582;28;20108;-75
2021/04/28 04:25:26;;;;;;;42.60;25.60;;;1.90;97.50;;;;;;5052772;28;20501;-74
2021/04/28 04:27:51;;;;;;;38.97;24.33;;;2.00;97.40;;;;;;5052474;28;20029;-74
2021/04/28 04:30:17;;;;;;;40.88;25.15;;;2.20;97.40;;;;;;5052579;28;20095;-77
2021/04/28 04:32:43;;;;;;;44.65;25.15;;;2.20;97.20;;;;;;5053455;28;20029;-77
2021/04/28 04:35:10;;;;;;;46.42;25.35;;;2.30;97.30;;;;;;5052829;28;20374;-77
2021/04/28 04:37:36;;;;;;;58.72;30.95;;;2.40;97.20;;;;;;5032877;28;20025;-76
2021/04/28 04:40:03;;;;;;;75.35;39.25;;;2.50;97.30;;;;;;5031605;28;20088;-77
2021/04/28 04:42:29;;;;;;;43.67;25.10;;;2.60;97.10;;;;;;5032768;28;20017;-77
2021/04/28 04:44:54;;;;;;;37.70;22.50;;;2.70;97.10;;;;;;5032950;28;20021;-76
2021/04/28 04:47:20;;;;;;;33.33;21.75;;;2.80;97.10;;;;;;5032857;28;20034;-76
2021/04/28 04:49:45;;;;;;;30.23;19.17;;;2.90;97.00;;;;;;5036611;28;20080;-78
2021/04/28 04:52:11;;;;;;;26.08;17.92;;;3.00;97.00;;;;;;5041487;28;20791;-76
2021/04/28 04:54:37;;;;;;;29.00;20.38;;;3.20;96.90;;;;;;5054602;28;20032;-76
2021/04/28 04:57:03;;;;;;;31.63;20.83;;;3.30;96.80;;;;;;5055117;28;20024;-74
2021/04/28 04:59:30;;;;;;;29.25;20.77;;;3.40;96.80;;;;;;5056581;28;20024;-81
2021/04/28 05:01:55;;;;;;;28.83;20.13;;;3.50;96.70;;;;;;5055150;28;20098;-75
2021/04/28 05:04:21;;;;;;;29.30;20.98;;;3.60;96.70;;;;;;5056500;28;20021;-76
2021/04/28 05:06:47;;;;;;;32.17;23.13;;;3.70;96.70;;;;;;5056898;28;20071;-76
2021/04/28 05:09:13;;;;;;;27.63;19.33;;;3.70;97.10;;;;;;5056813;28;20022;-76
2021/04/28 05:11:38;;;;;;;31.80;21.20;;;3.80;96.90;;;;;;5056438;28;20041;-76
2021/04/28 05:14:04;;;;;;;32.33;21.67;;;3.90;96.80;;;;;;5055122;28;20035;-76
2021/04/28 05:16:33;;;;;;;35.65;22.88;;;4.00;96.70;;;;;;5056758;28;20036;-76
2021/04/28 05:18:59;;;;;;;35.03;23.20;;;4.10;96.70;;;;;;5056487;28;20108;-76
2021/04/28 05:21:24;;;;;;;35.00;22.48;;;4.10;97.00;;;;;;5056540;28;20104;-76
2021/04/28 05:23:50;;;;;;;31.90;21.17;;;4.20;96.70;;;;;;5056541;28;20033;-76
2021/04/28 05:26:16;;;;;;;29.55;19.83;;;4.30;96.70;;;;;;5056288;28;20025;-76
2021/04/28 05:28:41;;;;;;;29.15;19.58;;;4.40;96.70;;;;;;5056522;28;20025;-76
2021/04/28 05:31:08;;;;;;;28.20;18.65;;;4.50;96.50;;;;;;5056167;28;20040;-76
2021/04/28 05:33:33;;;;;;;27.42;19.13;;;4.60;96.20;;;;;;5056153;28;20029;-76
2021/04/28 05:35:59;;;;;;;32.15;22.02;;;4.60;96.10;;;;;;5056046;28;20036;-76
2021/04/28 05:38:24;;;;;;;31.73;20.95;;;4.70;96.20;;;;;;5056338;28;20509;-76
2021/04/28 05:40:50;;;;;;;27.63;18.20;;;4.80;96.40;;;;;;5054659;28;20021;-76
2021/04/28 05:43:16;;;;;;;25.60;17.35;;;4.90;96.10;;;;;;5055973;28;20025;-76
2021/04/28 05:45:43;;;;;;;23.15;15.93;;;5.00;96.00;;;;;;5055878;28;20060;-76
2021/04/28 05:48:13;;;;;;;25.52;17.10;;;5.10;96.00;;;;;;5055942;28;20029;-76
2021/04/28 05:50:39;;;;;;;21.97;15.80;;;5.20;95.50;;;;;;5055673;28;20074;-76
2021/04/28 05:53:06;;;;;;;26.33;15.90;;;5.30;95.40;;;;;;5056071;28;20021;-76
2021/04/28 05:55:31;;;;;;;23.80;16.85;;;5.40;95.30;;;;;;5055995;28;20025;-76
2021/04/28 05:57:57;;;;;;;23.05;16.42;;;5.40;95.00;;;;;;5055520;28;20112;-76
2021/04/28 06:00:24;;;;;;;22.02;15.13;;;5.50;95.10;;;;;;5055507;28;20067;-76
2021/04/28 06:02:49;;;;;;;24.88;15.70;;;5.60;95.20;;;;;;5055498;28;20025;-76
2021/04/28 06:05:16;;;;;;;24.98;15.77;;;5.70;94.90;;;;;;5055209;28;20100;-76
2021/04/28 06:07:41;;;;;;;22.77;14.05;;;5.80;94.90;;;;;;5055250;28;20036;-76
2021/04/28 06:10:07;;;;;;;18.77;13.73;;;5.80;94.50;;;;;;5055277;28;20033;-76
2021/04/28 06:12:34;;;;;;;18.70;13.88;;;6.00;94.50;;;;;;5054035;28;20468;-76
2021/04/28 06:14:59;;;;;;;22.10;15.40;;;6.10;94.50;;;;;;5055297;28;20029;-76
2021/04/28 06:17:25;;;;;;;20.00;12.73;;;6.20;94.20;;;;;;5055510;28;20028;-76
2021/04/28 06:19:51;;;;;;;15.75;11.88;;;6.30;93.40;;;;;;5055095;28;20036;-76
2021/04/28 06:22:16;;;;;;;17.15;12.75;;;6.40;93.60;;;;;;5053847;28;20134;-76
2021/04/28 06:24:42;;;;;;;18.77;12.00;;;6.50;92.90;;;;;;5053803;28;20020;-76
2021/04/28 06:27:08;;;;;;;17.63;10.98;;;6.60;92.60;;;;;;5054009;28;20032;-76
2021/04/28 06:29:33;;;;;;;17.63;11.35;;;6.70;92.50;;;;;;5053553;28;20550;-76
2021/04/28 06:31:59;;;;;;;13.68;9.77;;;6.80;92.70;;;;;;5053471;28;20021;-76
2021/04/28 06:34:25;;;;;;;17.33;10.75;;;6.90;92.90;;;;;;5053478;28;20391;-76
2021/04/28 06:36:50;;;;;;;19.75;13.02;;;7.00;92.30;;;;;;5054689;28;20807;-76
2021/04/28 06:39:16;;;;;;;16.77;10.95;;;7.10;92.30;;;;;;5053433;28;20152;-76
2021/04/28 06:41:44;;;;;;;18.33;11.45;;;7.20;91.90;;;;;;5054669;28;20064;-77
2021/04/28 06:44:10;;;;;;;16.83;11.20;;;7.30;91.70;;;;;;5054821;28;20025;-76
2021/04/28 06:46:36;;;;;;;19.65;12.55;;;7.30;91.90;;;;;;5054561;28;20025;-76
2021/04/28 06:49:02;;;;;;;16.55;11.85;;;7.50;91.00;;;;;;5054445;28;20055;-76
2021/04/28 06:51:28;;;;;;;19.77;13.45;;;7.60;90.80;;;;;;5054343;28;20029;-76
2021/04/28 06:53:54;;;;;;;22.80;14.10;;;7.60;91.00;;;;;;5054356;28;20027;-76
2021/04/28 06:56:20;;;;;;;17.20;12.77;;;7.70;90.40;;;;;;5054832;28;20450;-76
2021/04/28 06:58:48;;;;;;;19.38;12.55;;;7.80;91.10;;;;;;5053031;28;20471;-76
2021/04/28 07:01:14;;;;;;;17.83;10.52;;;7.90;90.40;;;;;;5052926;28;20033;-76
2021/04/28 07:03:44;;;;;;;16.40;10.98;;;8.00;90.10;;;;;;5054212;28;20094;-76
2021/04/28 07:06:13;;;;;;;18.48;11.23;;;8.10;89.80;;;;;;5052957;28;20108;-76
2021/04/28 07:08:39;;;;;;;29.70;19.40;;;8.20;90.10;;;;;;5054367;28;20029;-76
2021/04/28 07:11:05;;;;;;;16.85;11.57;;;8.30;88.50;;;;;;5054297;28;20029;-76
2021/04/28 07:13:31;;;;;;;22.30;14.50;;;8.40;88.60;;;;;;5054036;28;20025;-76
2021/04/28 07:15:57;;;;;;;16.67;10.90;;;8.50;86.10;;;;;;5053990;28;20482;-76
2021/04/28 07:18:22;;;;;;;16.38;9.20;;;8.50;85.20;;;;;;5053208;28;20438;-76
2021/04/28 07:20:48;;;;;;;12.98;7.72;;;8.60;83.30;;;;;;5053841;28;20536;-76
2021/04/28 07:23:14;;;;;;;10.50;6.85;;;8.60;83.50;;;;;;5052680;28;20025;-76
2021/04/28 07:25:40;;;;;;;9.82;6.15;;;8.70;82.50;;;;;;5052522;28;20017;-77
2021/04/28 07:28:06;;;;;;;6.88;4.43;;;8.80;81.70;;;;;;5054039;28;20490;-76
2021/04/28 07:30:32;;;;;;;7.45;4.10;;;8.80;79.90;;;;;;5053845;28;20095;-76
2021/04/28 07:32:58;;;;;;;7.05;4.40;;;8.90;80.10;;;;;;5053847;28;20028;-76
2021/04/28 07:35:25;;;;;;;6.75;4.82;;;8.90;79.20;;;;;;5054062;28;20029;-76
2021/04/28 07:37:51;;;;;;;8.25;5.45;;;8.90;78.60;;;;;;5053692;28;20040;-76
2021/04/28 07:40:20;;;;;;;10.43;5.85;;;9.00;76.90;;;;;;5053651;28;20029;-76
2021/04/28 07:42:46;;;;;;;7.78;5.70;;;9.00;76.80;;;;;;5053592;28;20045;-76
2021/04/28 07:45:13;;;;;;;10.38;7.70;;;9.00;77.30;;;;;;5053829;28;20379;-76
2021/04/28 07:47:39;;;;;;;19.25;14.25;;;9.00;77.20;;;;;;5053821;28;20443;-76
2021/04/28 07:50:05;;;;;;;19.58;14.80;;;9.10;81.70;;;;;;5053439;28;20056;-76
2021/04/28 07:52:31;;;;;;;19.75;14.55;;;9.20;82.60;;;;;;5052249;28;20035;-76
2021/04/28 07:54:56;;;;;;;18.42;15.07;;;9.20;82.40;;;;;;5052336;28;20029;-76
2021/04/28 07:57:22;;;;;;;16.42;12.00;;;9.20;81.90;;;;;;5053439;28;20013;-76
2021/04/28 07:59:47;;;;;;;16.50;12.10;;;9.30;80.80;;;;;;5053706;28;20444;-77
2021/04/28 08:02:13;;;;;;;22.42;14.82;;;9.40;81.40;;;;;;5053548;28;20025;-76
2021/04/28 08:04:39;;;;;;;20.38;14.73;;;9.40;81.60;;;;;;5053544;28;20025;-76
2021/04/28 08:07:09;;;;;;;20.38;15.65;;;9.50;82.40;;;;;;5053403;28;20013;-76
2021/04/28 08:09:37;;;;;;;23.45;16.27;;;9.60;82.70;;;;;;5053407;28;20060;-76
2021/04/28 08:12:07;;;;;;;21.95;14.93;;;9.70;82.20;;;;;;5053337;28;20032;-76
2021/04/28 08:14:33;;;;;;;18.35;14.65;;;9.80;83.00;;;;;;5052092;28;20044;-76
2021/04/28 08:16:59;;;;;;;18.27;13.40;;;10.00;79.60;;;;;;5051986;28;20032;-76
2021/04/28 08:19:25;;;;;;;17.92;12.85;;;10.00;79.50;;;;;;5053737;28;20103;-76
2021/04/28 08:21:52;;;;;;;19.45;13.73;;;10.10;80.50;;;;;;5053436;28;20021;-76
2021/04/28 08:24:18;;;;;;;22.40;16.35;;;10.20;79.00;;;;;;5053243;28;20432;-76
2021/04/28 08:26:47;;;;;;;22.25;15.88;;;10.20;77.10;;;;;;5053158;28;20054;-76
2021/04/28 08:29:13;;;;;;;17.48;13.20;;;10.10;77.10;;;;;;5054357;28;20460;-77
2021/04/28 08:31:39;;;;;;;22.30;14.43;;;10.10;78.70;;;;;;5057112;28;20498;-76
2021/04/28 08:34:05;;;;;;;18.27;12.90;;;10.10;78.60;;;;;;5057083;28;20029;-76
2021/04/28 08:36:34;;;;;;;14.25;11.73;;;10.10;79.00;;;;;;5057350;28;20028;-76
2021/04/28 08:39:04;;;;;;;19.27;13.75;;;10.20;76.70;;;;;;5057334;28;20032;-76
2021/04/28 08:41:30;;;;;;;17.55;12.75;;;10.10;76.70;;;;;;5056869;28;20475;-76
2021/04/28 08:43:56;;;;;;;18.52;11.07;;;10.10;71.50;;;;;;5057393;28;20059;-76
2021/04/28 08:46:22;;;;;;;14.38;10.52;;;9.90;74.20;;;;;;5056875;28;20101;-76
2021/04/28 08:48:47;;;;;;;15.90;10.05;;;9.90;74.30;;;;;;5056803;28;20410;-76
2021/04/28 08:51:17;;;;;;;12.15;9.32;;;9.90;74.00;;;;;;5056834;28;20032;-76
2021/04/28 08:53:44;;;;;;;12.52;9.50;;;9.90;71.50;;;;;;5056840;28;20024;-76
2021/04/28 08:56:10;;;;;;;15.45;10.95;;;9.90;71.60;;;;;;5056728;28;20059;-76
2021/04/28 08:58:36;;;;;;;11.88;9.40;;;9.80;70.70;;;;;;5056981;28;20029;-76
2021/04/28 09:01:03;;;;;;;10.90;8.68;;;9.80;71.40;;;;;;5056555;28;20029;-76
2021/04/28 09:03:43;;;;;;;10.85;8.25;;;9.80;73.70;;;;;;5056796;28;20029;-76
2021/04/28 09:06:29;;;;;;;12.43;9.45;;;9.80;72.10;;;;;;5056578;28;20107;-76
2021/04/28 09:08:55;;;;;;;11.07;7.93;;;9.80;70.70;;;;;;5056458;28;20025;-76
2021/04/28 09:11:49;;;;;;;12.88;9.43;;;9.90;68.10;;;;;;5056662;28;20082;-76
2021/04/28 09:14:22;;;;;;;8.23;6.65;;;10.00;72.90;;;;;;5055099;28;20028;-76
2021/04/28 09:16:54;;;;;;;11.20;7.90;;;10.10;71.70;;;;;;5055336;28;20044;-76
2021/04/28 09:19:34;;;;;;;11.65;8.00;;;10.20;68.40;;;;;;5054971;28;20024;-76
2021/04/28 09:22:04;;;;;;;8.25;6.45;;;10.30;63.70;;;;;;5056202;28;20510;-76
2021/04/28 09:24:48;;;;;;;11.55;7.28;;;10.40;67.70;;;;;;5056211;28;20025;-76
2021/04/28 09:27:35;;;;;;;8.07;6.30;;;10.40;64.80;;;;;;5056131;28;20025;-76
2021/04/28 09:30:06;;;;;;;4.78;3.92;;;10.50;66.90;;;;;;5054725;28;20436;-76
2021/04/28 09:32:37;;;;;;;5.03;3.65;;;10.50;60.30;;;;;;5056073;28;20475;-76
2021/04/28 09:35:17;;;;;;;4.63;3.33;;;10.60;60.20;;;;;;5053960;28;20029;-75
2021/04/28 09:37:57;;;;;;;4.90;2.42;;;10.60;57.50;;;;;;5056256;28;20028;-76
2021/04/28 09:40:40;;;;;;;3.10;2.80;;;10.70;54.90;;;;;;5055387;28;20111;-76
2021/04/28 09:43:06;;;;;;;3.60;3.00;;;10.80;58.80;;;;;;5056136;28;20032;-76
2021/04/28 09:45:45;;;;;;;4.25;3.78;;;10.80;59.60;;;;;;5055686;28;20017;-76
2021/04/28 09:48:20;;;;;;;5.57;4.07;;;10.90;59.90;;;;;;5055803;28;20104;-76
2021/04/28 09:50:47;;;;;;;5.40;4.30;;;10.90;57.60;;;;;;5055508;28;20052;-76
2021/04/28 09:53:26;;;;;;;10.45;5.53;;;10.90;57.60;;;;;;5055863;28;20029;-76
2021/04/28 09:55:52;;;;;;;6.57;4.88;;;11.00;59.90;;;;;;5054321;28;20025;-76
2021/04/28 09:58:20;;;;;;;8.82;5.80;;;11.00;61.50;;;;;;5055549;28;20029;-76
2021/04/28 10:00:58;;;;;;;14.82;8.80;;;11.00;60.00;;;;;;5054206;28;20025;-76
2021/04/28 10:03:49;;;;;;;11.82;7.38;;;11.00;59.30;;;;;;5054168;28;20025;-76
2021/04/28 10:06:34;;;;;;;10.52;7.07;;;11.00;59.40;;;;;;5055467;28;20382;-76
2021/04/28 10:09:00;;;;;;;8.18;5.97;;;11.10;60.40;;;;;;5055142;28;20486;-77
2021/04/28 10:11:27;;;;;;;8.60;5.45;;;11.10;57.00;;;;;;5055262;28;20037;-77
2021/04/28 10:13:54;;;;;;;7.07;4.88;;;11.20;56.20;;;;;;5055272;28;20107;-77
2021/04/28 10:16:21;;;;;;;11.18;6.05;;;11.20;57.20;;;;;;5055214;28;20096;-77
2021/04/28 10:18:48;;;;;;;11.63;7.28;;;11.30;57.40;;;;;;5055220;28;20474;-77
2021/04/28 10:21:14;;;;;;;11.65;7.13;;;11.30;58.00;;;;;;5053776;28;20078;-77
2021/04/28 10:23:41;;;;;;;10.43;6.20;;;11.30;56.50;;;;;;5055348;28;20067;-77
2021/04/28 10:26:07;;;;;;;7.93;5.68;;;11.30;56.60;;;;;;5055048;28;20100;-77
2021/04/28 10:28:33;;;;;;;10.35;6.32;;;11.40;55.90;;;;;;5054861;28;20063;-77
2021/04/28 10:31:03;;;;;;;10.48;6.95;;;11.40;53.00;;;;;;5055118;28;20059;-76
2021/04/28 10:33:32;;;;;;;8.68;6.60;;;11.50;52.50;;;;;;5055158;28;20479;-77
2021/04/28 10:35:58;;;;;;;15.77;7.70;;;11.60;54.10;;;;;;5053532;28;20394;-77
2021/04/28 10:38:25;;;;;;;12.50;7.90;;;11.60;56.00;;;;;;5054833;28;20059;-77
2021/04/28 10:40:52;;;;;;;17.23;9.75;;;11.70;56.50;;;;;;5054554;28;20029;-76
2021/04/28 10:43:20;;;;;;;13.13;7.88;;;11.70;52.70;;;;;;5054940;28;20375;-77
2021/04/28 10:45:47;;;;;;;14.13;9.82;;;11.70;52.80;;;;;;5054603;28;20463;-77
2021/04/28 10:48:17;;;;;;;12.07;7.28;;;11.60;51.50;;;;;;5053221;28;20535;-77
2021/04/28 10:50:46;;;;;;;11.40;6.88;;;11.60;53.60;;;;;;5054401;28;20055;-77
2021/04/28 10:53:22;;;;;;;9.27;6.47;;;11.60;52.40;;;;;;5054359;28;20051;-76
2021/04/28 10:55:57;;;;;;;6.80;5.00;;;11.70;54.10;;;;;;5054649;28;20383;-77
2021/04/28 10:58:32;;;;;;;9.85;5.55;;;11.80;54.50;;;;;;5054490;28;20028;-77
2021/04/28 11:01:04;;;;;;;6.28;4.32;;;11.80;54.60;;;;;;5054297;28;20378;-77
2021/04/28 11:03:49;;;;;;;9.35;6.93;;;11.90;52.60;;;;;;5054614;28;20120;-76
2021/04/28 11:06:23;;;;;;;9.70;6.32;;;11.80;48.50;;;;;;5054407;28;20490;-76
2021/04/28 11:09:00;;;;;;;9.60;7.53;;;11.80;51.30;;;;;;5054474;28;20481;-74
2021/04/28 11:11:46;;;;;;;12.90;6.97;;;11.80;51.70;;;;;;5054624;28;20049;-74
2021/04/28 11:16:44;;;;;;;7.22;5.57;;;12.00;53.90;;;;;;5054493;28;20143;-75
2021/04/28 11:19:15;;;;;;;9.52;6.03;;;12.10;54.20;;;;;;5054081;28;20463;-75
2021/04/28 11:21:40;;;;;;;8.80;5.70;;;12.20;51.30;;;;;;5052663;28;20386;-75
2021/04/28 11:24:08;;;;;;;9.63;5.80;;;12.20;50.60;;;;;;5053942;28;20033;-75
2021/04/28 11:26:39;;;;;;;7.28;4.78;;;12.20;51.50;;;;;;5052585;28;20021;-75
2021/04/28 11:29:07;;;;;;;7.85;5.72;;;12.30;51.60;;;;;;5054576;28;20091;-75
2021/04/28 11:31:44;;;;;;;8.15;5.28;;;12.30;50.50;;;;;;5054495;28;20036;-75
2021/04/28 11:34:27;;;;;;;6.30;4.57;;;12.10;49.00;;;;;;5053770;28;20025;-75
2021/04/28 11:36:59;;;;;;;9.85;6.18;;;12.20;51.90;;;;;;5053756;28;20383;-75
2021/04/28 11:39:37;;;;;;;7.18;5.28;;;12.10;48.50;;;;;;5053997;28;20031;-75
2021/04/28 11:42:10;;;;;;;11.50;4.90;;;12.10;49.50;;;;;;5053386;28;20032;-76
2021/04/28 11:44:51;;;;;;;9.20;5.40;;;12.20;50.40;;;;;;5053312;28;20029;-75
2021/04/28 11:47:20;;;;;;;8.73;5.85;;;12.20;49.20;;;;;;5052395;28;20463;-76
2021/04/28 11:49:48;;;;;;;9.30;5.25;;;12.20;49.20;;;;;;5053295;28;20056;-78
2021/04/28 11:52:16;;;;;;;8.25;4.88;;;12.20;50.20;;;;;;5053682;28;20033;-78
2021/04/28 11:54:43;;;;;;;8.40;4.65;;;12.20;49.70;;;;;;5053529;28;20021;-77
2021/04/28 11:57:09;;;;;;;6.00;3.80;;;12.40;53.00;;;;;;5053460;28;20021;-78
2021/04/28 11:59:36;;;;;;;4.82;3.50;;;12.60;54.70;;;;;;5053385;28;20032;-78
2021/04/28 12:02:02;;;;;;;5.60;4.13;;;12.70;54.90;;;;;;5052079;28;20032;-78
2021/04/28 12:04:31;;;;;;;4.07;3.50;;;12.90;55.00;;;;;;5052851;28;20029;-78
2021/04/28 12:06:58;;;;;;;5.07;4.20;;;13.00;54.70;;;;;;5052943;28;20112;-78
2021/04/28 12:09:47;;;;;;;6.72;4.28;;;13.00;50.90;;;;;;5052010;28;20021;-78
2021/04/28 12:12:20;;;;;;;6.03;3.75;;;13.00;50.30;;;;;;5053641;28;20371;-78
2021/04/28 12:15:04;;;;;;;4.60;4.10;;;13.10;52.20;;;;;;5052045;28;20025;-77
2021/04/28 12:17:33;;;;;;;5.03;3.65;;;13.10;49.80;;;;;;5052039;28;20029;-77
2021/04/28 12:19:59;;;;;;;5.60;3.60;;;13.20;51.00;;;;;;5053484;28;20441;-77
2021/04/28 12:22:30;;;;;;;6.53;3.60;;;13.30;52.50;;;;;;5053275;28;20087;-78
2021/04/28 12:24:57;;;;;;;4.72;3.42;;;13.50;52.00;;;;;;5053365;28;20017;-78
2021/04/28 12:27:31;;;;;;;3.70;3.30;;;13.60;53.30;;;;;;5052026;28;20057;-78
2021/04/28 12:29:59;;;;;;;5.30;3.70;;;13.90;52.80;;;;;;5053295;28;20406;-78
2021/04/28 12:32:31;;;;;;;5.43;4.00;;;14.10;52.70;;;;;;5053602;28;20032;-78
2021/04/28 12:35:18;;;;;;;5.85;4.50;;;14.20;51.90;;;;;;5053305;28;20029;-78
2021/04/28 12:38:04;;;;;;;7.43;3.97;;;14.10;49.70;;;;;;5053174;28;20082;-78
2021/04/28 12:40:41;;;;;;;5.97;3.72;;;14.30;50.10;;;;;;5053138;28;20021;-77
2021/04/28 12:43:14;;;;;;;4.90;3.85;;;14.40;48.40;;;;;;5053166;28;20489;-78
2021/04/28 12:45:40;;;;;;;4.85;4.07;;;14.50;51.30;;;;;;5053067;28;20021;-78